sensor_id;sensor_type;location;lat;lon;timestamp;P1;durP1;ratioP1;P2;durP2;ratioP2
10114;SDS011;5097;43.260;27.812;2023-06-26T00:00:24;20.00;;;18.00;;
10114;SDS011;5097;43.260;27.812;2023-06-26T00:03:08;22.20;;;18.45;;
10114;SDS011;5097;43.260;27.812;2023-06-26T00:05:55;20.30;;;18.20;;
10114;SDS011;5097;43.260;27.812;2023-06-26T00:08:43;18.48;;;16.58;;
10114;SDS011;5097;43.260;27.812;2023-06-26T00:11:27;21.05;;;18.67;;
10114;SDS011;5097;43.260;27.812;2023-06-26T00:14:17;24.15;;;17.73;;
10114;SDS011;5097;43.260;27.812;2023-06-26T00:17:03;19.77;;;17.73;;
10114;SDS011;5097;43.260;27.812;2023-06-26T00:19:47;19.05;;;17.08;;
10114;SDS011;5097;43.260;27.812;2023-06-26T00:22:31;23.25;;;17.25;;
10114;SDS011;5097;43.260;27.812;2023-06-26T00:25:15;18.80;;;16.88;;
10114;SDS011;5097;43.260;27.812;2023-06-26T00:28:00;17.40;;;15.63;;
10114;SDS011;5097;43.260;27.812;2023-06-26T00:30:46;18.25;;;15.48;;
10114;SDS011;5097;43.260;27.812;2023-06-26T00:33:30;16.55;;;14.90;;
10114;SDS011;5097;43.260;27.812;2023-06-26T00:36:14;15.95;;;14.30;;
10114;SDS011;5097;43.260;27.812;2023-06-26T00:38:59;17.05;;;15.38;;
10114;SDS011;5097;43.260;27.812;2023-06-26T00:41:43;16.60;;;14.98;;
10114;SDS011;5097;43.260;27.812;2023-06-26T00:44:27;19.33;;;15.40;;
10114;SDS011;5097;43.260;27.812;2023-06-26T00:47:13;16.15;;;14.10;;
10114;SDS011;5097;43.260;27.812;2023-06-26T00:49:59;16.55;;;14.60;;
10114;SDS011;5097;43.260;27.812;2023-06-26T00:52:44;15.93;;;12.77;;
10114;SDS011;5097;43.260;27.812;2023-06-26T00:55:28;13.70;;;12.30;;
10114;SDS011;5097;43.260;27.812;2023-06-26T00:58:12;14.10;;;11.35;;
10114;SDS011;5097;43.260;27.812;2023-06-26T01:00:57;13.57;;;12.05;;
10114;SDS011;5097;43.260;27.812;2023-06-26T01:03:44;12.25;;;10.77;;
10114;SDS011;5097;43.260;27.812;2023-06-26T01:06:29;14.63;;;11.45;;
10114;SDS011;5097;43.260;27.812;2023-06-26T01:09:17;12.55;;;11.00;;
10114;SDS011;5097;43.260;27.812;2023-06-26T01:12:05;12.27;;;11.00;;
10114;SDS011;5097;43.260;27.812;2023-06-26T01:14:49;13.35;;;10.77;;
10114;SDS011;5097;43.260;27.812;2023-06-26T01:17:33;17.30;;;11.85;;
10114;SDS011;5097;43.260;27.812;2023-06-26T01:20:20;16.58;;;11.68;;
10114;SDS011;5097;43.260;27.812;2023-06-26T01:23:05;15.18;;;11.40;;
10114;SDS011;5097;43.260;27.812;2023-06-26T01:26:17;14.80;;;12.07;;
10114;SDS011;5097;43.260;27.812;2023-06-26T01:29:03;19.08;;;12.30;;
10114;SDS011;5097;43.260;27.812;2023-06-26T01:31:50;13.30;;;11.90;;
10114;SDS011;5097;43.260;27.812;2023-06-26T01:34:35;15.45;;;13.25;;
10114;SDS011;5097;43.260;27.812;2023-06-26T01:37:20;16.08;;;12.90;;
10114;SDS011;5097;43.260;27.812;2023-06-26T01:40:04;18.40;;;13.32;;
10114;SDS011;5097;43.260;27.812;2023-06-26T01:42:50;18.40;;;13.23;;
10114;SDS011;5097;43.260;27.812;2023-06-26T01:45:35;18.30;;;13.60;;
10114;SDS011;5097;43.260;27.812;2023-06-26T01:48:27;16.20;;;13.55;;
10114;SDS011;5097;43.260;27.812;2023-06-26T01:51:16;21.42;;;14.27;;
10114;SDS011;5097;43.260;27.812;2023-06-26T01:54:03;20.88;;;14.23;;
10114;SDS011;5097;43.260;27.812;2023-06-26T01:56:53;20.02;;;14.65;;
10114;SDS011;5097;43.260;27.812;2023-06-26T01:59:39;18.13;;;15.57;;
10114;SDS011;5097;43.260;27.812;2023-06-26T02:02:25;21.08;;;15.00;;
10114;SDS011;5097;43.260;27.812;2023-06-26T02:05:09;19.90;;;15.38;;
10114;SDS011;5097;43.260;27.812;2023-06-26T02:07:53;21.42;;;15.63;;
10114;SDS011;5097;43.260;27.812;2023-06-26T02:10:37;18.58;;;16.02;;
10114;SDS011;5097;43.260;27.812;2023-06-26T02:13:22;21.30;;;15.93;;
10114;SDS011;5097;43.260;27.812;2023-06-26T02:16:08;26.73;;;16.65;;
10114;SDS011;5097;43.260;27.812;2023-06-26T02:18:52;19.75;;;16.23;;
10114;SDS011;5097;43.260;27.812;2023-06-26T02:21:57;25.73;;;17.63;;
10114;SDS011;5097;43.260;27.812;2023-06-26T02:24:41;20.85;;;16.90;;
10114;SDS011;5097;43.260;27.812;2023-06-26T02:27:26;21.83;;;17.17;;
10114;SDS011;5097;43.260;27.812;2023-06-26T02:30:10;23.17;;;18.58;;
10114;SDS011;5097;43.260;27.812;2023-06-26T02:32:56;23.77;;;17.30;;
10114;SDS011;5097;43.260;27.812;2023-06-26T02:35:40;22.60;;;18.77;;
10114;SDS011;5097;43.260;27.812;2023-06-26T02:38:25;24.58;;;18.85;;
10114;SDS011;5097;43.260;27.812;2023-06-26T02:41:09;27.58;;;18.70;;
10114;SDS011;5097;43.260;27.812;2023-06-26T02:43:54;28.75;;;18.85;;
10114;SDS011;5097;43.260;27.812;2023-06-26T02:46:38;25.95;;;19.10;;
10114;SDS011;5097;43.260;27.812;2023-06-26T02:49:24;22.38;;;18.55;;
10114;SDS011;5097;43.260;27.812;2023-06-26T02:52:08;22.50;;;20.08;;
10114;SDS011;5097;43.260;27.812;2023-06-26T02:54:52;23.02;;;19.77;;
10114;SDS011;5097;43.260;27.812;2023-06-26T02:57:36;23.35;;;20.15;;
10114;SDS011;5097;43.260;27.812;2023-06-26T03:00:20;24.45;;;20.83;;
10114;SDS011;5097;43.260;27.812;2023-06-26T03:03:07;22.38;;;20.00;;
10114;SDS011;5097;43.260;27.812;2023-06-26T03:05:53;22.70;;;18.58;;
10114;SDS011;5097;43.260;27.812;2023-06-26T03:08:37;21.77;;;19.63;;
10114;SDS011;5097;43.260;27.812;2023-06-26T03:11:21;23.05;;;19.95;;
10114;SDS011;5097;43.260;27.812;2023-06-26T03:14:05;23.55;;;19.15;;
10114;SDS011;5097;43.260;27.812;2023-06-26T03:16:49;20.67;;;18.50;;
10114;SDS011;5097;43.260;27.812;2023-06-26T03:19:35;20.98;;;17.83;;
10114;SDS011;5097;43.260;27.812;2023-06-26T03:22:35;27.40;;;17.20;;
10114;SDS011;5097;43.260;27.812;2023-06-26T03:25:19;25.73;;;17.08;;
10114;SDS011;5097;43.260;27.812;2023-06-26T03:28:06;19.25;;;16.63;;
10114;SDS011;5097;43.260;27.812;2023-06-26T03:30:51;20.60;;;17.75;;
10114;SDS011;5097;43.260;27.812;2023-06-26T03:33:37;19.85;;;17.85;;
10114;SDS011;5097;43.260;27.812;2023-06-26T03:36:22;23.20;;;18.10;;
10114;SDS011;5097;43.260;27.812;2023-06-26T03:39:08;21.75;;;17.40;;
10114;SDS011;5097;43.260;27.812;2023-06-26T03:41:52;20.48;;;16.48;;
10114;SDS011;5097;43.260;27.812;2023-06-26T03:44:37;17.10;;;15.30;;
10114;SDS011;5097;43.260;27.812;2023-06-26T03:47:21;17.48;;;15.77;;
10114;SDS011;5097;43.260;27.812;2023-06-26T03:50:05;17.85;;;16.05;;
10114;SDS011;5097;43.260;27.812;2023-06-26T03:52:50;17.38;;;13.77;;
10114;SDS011;5097;43.260;27.812;2023-06-26T03:55:35;18.27;;;15.30;;
10114;SDS011;5097;43.260;27.812;2023-06-26T03:58:21;17.63;;;14.77;;
10114;SDS011;5097;43.260;27.812;2023-06-26T04:01:05;17.88;;;15.73;;
10114;SDS011;5097;43.260;27.812;2023-06-26T04:03:49;17.90;;;16.15;;
10114;SDS011;5097;43.260;27.812;2023-06-26T04:06:33;16.20;;;14.30;;
10114;SDS011;5097;43.260;27.812;2023-06-26T04:09:17;19.02;;;15.77;;
10114;SDS011;5097;43.260;27.812;2023-06-26T04:12:03;19.60;;;14.80;;
10114;SDS011;5097;43.260;27.812;2023-06-26T04:14:49;15.50;;;13.95;;
10114;SDS011;5097;43.260;27.812;2023-06-26T04:17:34;18.77;;;15.80;;
10114;SDS011;5097;43.260;27.812;2023-06-26T04:20:18;20.38;;;16.88;;
10114;SDS011;5097;43.260;27.812;2023-06-26T04:23:02;19.92;;;18.00;;
10114;SDS011;5097;43.260;27.812;2023-06-26T04:25:46;19.33;;;17.35;;
10114;SDS011;5097;43.260;27.812;2023-06-26T04:28:32;19.25;;;17.23;;
10114;SDS011;5097;43.260;27.812;2023-06-26T04:31:17;20.80;;;16.02;;
10114;SDS011;5097;43.260;27.812;2023-06-26T04:34:01;18.13;;;14.60;;
10114;SDS011;5097;43.260;27.812;2023-06-26T04:36:45;13.88;;;12.57;;
10114;SDS011;5097;43.260;27.812;2023-06-26T04:39:30;13.73;;;12.52;;
10114;SDS011;5097;43.260;27.812;2023-06-26T04:42:14;13.43;;;12.07;;
10114;SDS011;5097;43.260;27.812;2023-06-26T04:44:59;13.70;;;12.13;;
10114;SDS011;5097;43.260;27.812;2023-06-26T04:47:47;11.77;;;10.68;;
10114;SDS011;5097;43.260;27.812;2023-06-26T04:50:31;11.55;;;10.50;;
10114;SDS011;5097;43.260;27.812;2023-06-26T04:53:15;11.77;;;10.68;;
10114;SDS011;5097;43.260;27.812;2023-06-26T04:55:59;10.40;;;9.07;;
10114;SDS011;5097;43.260;27.812;2023-06-26T04:58:43;9.48;;;8.55;;
10114;SDS011;5097;43.260;27.812;2023-06-26T05:01:29;6.72;;;6.20;;
10114;SDS011;5097;43.260;27.812;2023-06-26T05:04:14;4.85;;;4.47;;
10114;SDS011;5097;43.260;27.812;2023-06-26T05:06:59;4.28;;;3.65;;
10114;SDS011;5097;43.260;27.812;2023-06-26T05:09:43;5.00;;;4.45;;
10114;SDS011;5097;43.260;27.812;2023-06-26T05:12:27;4.70;;;3.50;;
10114;SDS011;5097;43.260;27.812;2023-06-26T05:15:10;3.85;;;3.60;;
10114;SDS011;5097;43.260;27.812;2023-06-26T05:17:56;6.60;;;4.30;;
10114;SDS011;5097;43.260;27.812;2023-06-26T05:20:40;5.40;;;4.10;;
10114;SDS011;5097;43.260;27.812;2023-06-26T05:23:24;4.22;;;3.83;;
10114;SDS011;5097;43.260;27.812;2023-06-26T05:26:09;4.63;;;4.22;;
10114;SDS011;5097;43.260;27.812;2023-06-26T05:28:53;7.00;;;5.22;;
10114;SDS011;5097;43.260;27.812;2023-06-26T05:31:40;6.90;;;6.30;;
10114;SDS011;5097;43.260;27.812;2023-06-26T05:34:26;6.85;;;6.20;;
10114;SDS011;5097;43.260;27.812;2023-06-26T05:37:11;10.35;;;7.32;;
10114;SDS011;5097;43.260;27.812;2023-06-26T05:40:00;7.60;;;6.80;;
10114;SDS011;5097;43.260;27.812;2023-06-26T05:42:46;6.45;;;5.95;;
10114;SDS011;5097;43.260;27.812;2023-06-26T05:45:31;7.20;;;6.68;;
10114;SDS011;5097;43.260;27.812;2023-06-26T05:48:15;7.78;;;6.05;;
10114;SDS011;5097;43.260;27.812;2023-06-26T05:51:02;7.45;;;6.85;;
10114;SDS011;5097;43.260;27.812;2023-06-26T05:53:47;8.10;;;7.50;;
10114;SDS011;5097;43.260;27.812;2023-06-26T05:56:32;9.23;;;8.32;;
10114;SDS011;5097;43.260;27.812;2023-06-26T05:59:16;10.35;;;9.35;;
10114;SDS011;5097;43.260;27.812;2023-06-26T06:02:02;12.20;;;10.90;;
10114;SDS011;5097;43.260;27.812;2023-06-26T06:04:46;11.82;;;10.75;;
10114;SDS011;5097;43.260;27.812;2023-06-26T06:07:32;12.48;;;11.23;;
10114;SDS011;5097;43.260;27.812;2023-06-26T06:10:16;11.57;;;10.57;;
10114;SDS011;5097;43.260;27.812;2023-06-26T06:13:00;11.63;;;10.63;;
10114;SDS011;5097;43.260;27.812;2023-06-26T06:15:44;12.65;;;11.55;;
10114;SDS011;5097;43.260;27.812;2023-06-26T06:18:28;14.07;;;12.73;;
10114;SDS011;5097;43.260;27.812;2023-06-26T06:21:12;12.57;;;11.43;;
10114;SDS011;5097;43.260;27.812;2023-06-26T06:23:58;14.75;;;13.23;;
10114;SDS011;5097;43.260;27.812;2023-06-26T06:26:43;14.02;;;12.55;;
10114;SDS011;5097;43.260;27.812;2023-06-26T06:29:27;12.85;;;11.63;;
10114;SDS011;5097;43.260;27.812;2023-06-26T06:32:11;13.85;;;12.65;;
10114;SDS011;5097;43.260;27.812;2023-06-26T06:34:55;16.27;;;14.40;;
10114;SDS011;5097;43.260;27.812;2023-06-26T06:37:39;14.35;;;12.38;;
10114;SDS011;5097;43.260;27.812;2023-06-26T06:40:25;14.15;;;11.32;;
10114;SDS011;5097;43.260;27.812;2023-06-26T06:43:09;13.52;;;12.20;;
10114;SDS011;5097;43.260;27.812;2023-06-26T06:45:53;13.70;;;12.52;;
10114;SDS011;5097;43.260;27.812;2023-06-26T06:48:36;13.88;;;12.55;;
10114;SDS011;5097;43.260;27.812;2023-06-26T06:51:20;12.88;;;10.93;;
10114;SDS011;5097;43.260;27.812;2023-06-26T06:54:04;12.65;;;11.35;;
10114;SDS011;5097;43.260;27.812;2023-06-26T06:56:50;11.13;;;10.13;;
10114;SDS011;5097;43.260;27.812;2023-06-26T06:59:34;11.55;;;10.55;;
10114;SDS011;5097;43.260;27.812;2023-06-26T07:02:18;12.63;;;11.52;;
10114;SDS011;5097;43.260;27.812;2023-06-26T07:05:02;13.00;;;11.80;;
10114;SDS011;5097;43.260;27.812;2023-06-26T07:07:47;14.10;;;12.75;;
10114;SDS011;5097;43.260;27.812;2023-06-26T07:10:31;12.77;;;11.57;;
10114;SDS011;5097;43.260;27.812;2023-06-26T07:13:17;12.35;;;10.15;;
10114;SDS011;5097;43.260;27.812;2023-06-26T07:16:00;10.77;;;9.90;;
10114;SDS011;5097;43.260;27.812;2023-06-26T07:18:44;11.02;;;9.60;;
10114;SDS011;5097;43.260;27.812;2023-06-26T07:21:28;11.60;;;10.50;;
10114;SDS011;5097;43.260;27.812;2023-06-26T07:24:12;10.40;;;9.40;;
10114;SDS011;5097;43.260;27.812;2023-06-26T07:26:56;9.98;;;9.18;;
10114;SDS011;5097;43.260;27.812;2023-06-26T07:29:42;11.02;;;9.88;;
10114;SDS011;5097;43.260;27.812;2023-06-26T07:32:26;10.57;;;9.63;;
10114;SDS011;5097;43.260;27.812;2023-06-26T07:35:10;10.45;;;9.48;;
10114;SDS011;5097;43.260;27.812;2023-06-26T07:37:54;11.13;;;10.02;;
10114;SDS011;5097;43.260;27.812;2023-06-26T07:40:38;10.32;;;9.02;;
10114;SDS011;5097;43.260;27.812;2023-06-26T07:43:22;11.15;;;9.27;;
10114;SDS011;5097;43.260;27.812;2023-06-26T07:46:07;9.68;;;8.68;;
10114;SDS011;5097;43.260;27.812;2023-06-26T07:48:52;9.15;;;8.32;;
10114;SDS011;5097;43.260;27.812;2023-06-26T07:51:37;8.60;;;7.80;;
10114;SDS011;5097;43.260;27.812;2023-06-26T07:54:21;12.57;;;8.57;;
10114;SDS011;5097;43.260;27.812;2023-06-26T07:57:05;8.35;;;7.53;;
10114;SDS011;5097;43.260;27.812;2023-06-26T07:59:51;15.88;;;9.50;;
10114;SDS011;5097;43.260;27.812;2023-06-26T08:02:36;16.08;;;9.18;;
10114;SDS011;5097;43.260;27.812;2023-06-26T08:05:20;10.57;;;7.72;;
10114;SDS011;5097;43.260;27.812;2023-06-26T08:08:04;8.48;;;7.53;;
10114;SDS011;5097;43.260;27.812;2023-06-26T08:10:49;8.85;;;7.95;;
10114;SDS011;5097;43.260;27.812;2023-06-26T08:13:34;8.73;;;7.82;;
10114;SDS011;5097;43.260;27.812;2023-06-26T08:16:18;8.32;;;7.53;;
10114;SDS011;5097;43.260;27.812;2023-06-26T08:19:03;8.23;;;7.38;;
10114;SDS011;5097;43.260;27.812;2023-06-26T08:21:47;8.23;;;7.50;;
10114;SDS011;5097;43.260;27.812;2023-06-26T08:24:31;8.32;;;7.28;;
10114;SDS011;5097;43.260;27.812;2023-06-26T08:27:15;8.85;;;7.60;;
10114;SDS011;5097;43.260;27.812;2023-06-26T08:29:59;8.75;;;7.75;;
10114;SDS011;5097;43.260;27.812;2023-06-26T08:32:45;9.15;;;7.20;;
10114;SDS011;5097;43.260;27.812;2023-06-26T08:35:30;10.15;;;6.65;;
10114;SDS011;5097;43.260;27.812;2023-06-26T08:38:14;9.73;;;7.18;;
10114;SDS011;5097;43.260;27.812;2023-06-26T08:41:03;9.43;;;7.03;;
10114;SDS011;5097;43.260;27.812;2023-06-26T08:43:50;7.72;;;7.03;;
10114;SDS011;5097;43.260;27.812;2023-06-26T08:46:34;8.05;;;7.28;;
10114;SDS011;5097;43.260;27.812;2023-06-26T08:49:20;7.55;;;6.95;;
10114;SDS011;5097;43.260;27.812;2023-06-26T08:52:10;7.10;;;6.45;;
10114;SDS011;5097;43.260;27.812;2023-06-26T08:55:01;8.13;;;6.97;;
10114;SDS011;5097;43.260;27.812;2023-06-26T08:57:50;8.23;;;7.43;;
10114;SDS011;5097;43.260;27.812;2023-06-26T09:00:34;7.63;;;6.93;;
10114;SDS011;5097;43.260;27.812;2023-06-26T09:03:19;8.55;;;7.68;;
10114;SDS011;5097;43.260;27.812;2023-06-26T09:06:05;8.07;;;7.28;;
10114;SDS011;5097;43.260;27.812;2023-06-26T09:08:50;8.38;;;6.82;;
10114;SDS011;5097;43.260;27.812;2023-06-26T09:11:34;7.70;;;7.00;;
10114;SDS011;5097;43.260;27.812;2023-06-26T09:14:18;7.38;;;6.57;;
10114;SDS011;5097;43.260;27.812;2023-06-26T09:17:03;6.93;;;6.07;;
10114;SDS011;5097;43.260;27.812;2023-06-26T09:19:47;6.57;;;5.97;;
10114;SDS011;5097;43.260;27.812;2023-06-26T09:22:32;7.70;;;6.15;;
10114;SDS011;5097;43.260;27.812;2023-06-26T09:25:21;7.03;;;6.18;;
10114;SDS011;5097;43.260;27.812;2023-06-26T09:28:05;6.40;;;5.30;;
10114;SDS011;5097;43.260;27.812;2023-06-26T09:30:50;9.10;;;6.28;;
10114;SDS011;5097;43.260;27.812;2023-06-26T09:33:36;6.75;;;6.15;;
10114;SDS011;5097;43.260;27.812;2023-06-26T09:36:21;6.55;;;6.00;;
10114;SDS011;5097;43.260;27.812;2023-06-26T09:39:06;7.93;;;6.18;;
10114;SDS011;5097;43.260;27.812;2023-06-26T09:41:56;7.10;;;5.63;;
10114;SDS011;5097;43.260;27.812;2023-06-26T09:44:43;6.72;;;5.97;;
10114;SDS011;5097;43.260;27.812;2023-06-26T09:47:29;8.18;;;5.78;;
10114;SDS011;5097;43.260;27.812;2023-06-26T09:50:23;10.55;;;5.88;;
10114;SDS011;5097;43.260;27.812;2023-06-26T09:53:10;6.00;;;4.60;;
10114;SDS011;5097;43.260;27.812;2023-06-26T09:55:55;6.18;;;4.90;;
10114;SDS011;5097;43.260;27.812;2023-06-26T09:58:41;7.90;;;5.20;;
10114;SDS011;5097;43.260;27.812;2023-06-26T10:01:27;6.35;;;5.80;;
10114;SDS011;5097;43.260;27.812;2023-06-26T10:04:11;7.53;;;5.28;;
10114;SDS011;5097;43.260;27.812;2023-06-26T10:06:57;6.85;;;5.85;;
10114;SDS011;5097;43.260;27.812;2023-06-26T10:09:44;6.75;;;5.25;;
10114;SDS011;5097;43.260;27.812;2023-06-26T10:12:31;6.03;;;5.10;;
10114;SDS011;5097;43.260;27.812;2023-06-26T10:15:17;4.93;;;4.53;;
10114;SDS011;5097;43.260;27.812;2023-06-26T10:18:02;5.22;;;4.82;;
10114;SDS011;5097;43.260;27.812;2023-06-26T10:20:48;5.32;;;4.93;;
10114;SDS011;5097;43.260;27.812;2023-06-26T10:23:34;5.93;;;4.47;;
10114;SDS011;5097;43.260;27.812;2023-06-26T10:26:20;6.10;;;4.47;;
10114;SDS011;5097;43.260;27.812;2023-06-26T10:29:05;5.05;;;4.15;;
10114;SDS011;5097;43.260;27.812;2023-06-26T10:31:52;6.05;;;3.75;;
10114;SDS011;5097;43.260;27.812;2023-06-26T10:34:40;4.03;;;3.72;;
10114;SDS011;5097;43.260;27.812;2023-06-26T10:40:27;3.95;;;3.60;;
10114;SDS011;5097;43.260;27.812;2023-06-26T10:43:12;4.13;;;3.72;;
10114;SDS011;5097;43.260;27.812;2023-06-26T10:45:57;4.00;;;3.70;;
10114;SDS011;5097;43.260;27.812;2023-06-26T10:51:45;5.07;;;3.50;;
10114;SDS011;5097;43.260;27.812;2023-06-26T10:54:31;5.00;;;3.88;;
10114;SDS011;5097;43.260;27.812;2023-06-26T10:57:23;4.38;;;3.75;;
10114;SDS011;5097;43.260;27.812;2023-06-26T11:00:08;4.25;;;3.88;;
10114;SDS011;5097;43.260;27.812;2023-06-26T11:02:52;10.20;;;5.03;;
10114;SDS011;5097;43.260;27.812;2023-06-26T11:05:38;3.90;;;3.58;;
10114;SDS011;5097;43.260;27.812;2023-06-26T11:08:36;7.85;;;4.50;;
10114;SDS011;5097;43.260;27.812;2023-06-26T11:14:41;3.90;;;3.60;;
10114;SDS011;5097;43.260;27.812;2023-06-26T11:17:25;7.50;;;3.65;;
10114;SDS011;5097;43.260;27.812;2023-06-26T11:20:11;10.45;;;4.20;;
10114;SDS011;5097;43.260;27.812;2023-06-26T11:22:58;6.85;;;3.85;;
10114;SDS011;5097;43.260;27.812;2023-06-26T11:25:42;5.95;;;4.70;;
10114;SDS011;5097;43.260;27.812;2023-06-26T11:28:26;4.65;;;3.72;;
10114;SDS011;5097;43.260;27.812;2023-06-26T11:31:20;4.93;;;3.67;;
10114;SDS011;5097;43.260;27.812;2023-06-26T11:34:08;4.05;;;3.65;;
10114;SDS011;5097;43.260;27.812;2023-06-26T11:36:56;4.38;;;4.05;;
10114;SDS011;5097;43.260;27.812;2023-06-26T11:39:42;4.35;;;3.95;;
10114;SDS011;5097;43.260;27.812;2023-06-26T11:42:26;8.65;;;4.72;;
10114;SDS011;5097;43.260;27.812;2023-06-26T11:45:11;8.05;;;4.25;;
10114;SDS011;5097;43.260;27.812;2023-06-26T11:47:55;9.15;;;5.47;;
10114;SDS011;5097;43.260;27.812;2023-06-26T11:50:40;3.83;;;3.47;;
10114;SDS011;5097;43.260;27.812;2023-06-26T11:53:26;4.32;;;3.88;;
10114;SDS011;5097;43.260;27.812;2023-06-26T11:56:12;12.07;;;5.38;;
10114;SDS011;5097;43.260;27.812;2023-06-26T11:58:57;66.07;;;17.35;;
10114;SDS011;5097;43.260;27.812;2023-06-26T12:01:45;4.47;;;4.07;;
10114;SDS011;5097;43.260;27.812;2023-06-26T12:04:29;6.70;;;4.22;;
10114;SDS011;5097;43.260;27.812;2023-06-26T12:07:14;4.40;;;4.00;;
10114;SDS011;5097;43.260;27.812;2023-06-26T12:10:00;5.85;;;4.45;;
10114;SDS011;5097;43.260;27.812;2023-06-26T12:12:46;6.47;;;4.32;;
10114;SDS011;5097;43.260;27.812;2023-06-26T12:15:30;4.40;;;3.88;;
10114;SDS011;5097;43.260;27.812;2023-06-26T12:18:15;44.42;;;8.65;;
10114;SDS011;5097;43.260;27.812;2023-06-26T12:20:59;5.65;;;3.55;;
10114;SDS011;5097;43.260;27.812;2023-06-26T12:23:43;8.77;;;4.25;;
10114;SDS011;5097;43.260;27.812;2023-06-26T12:26:27;17.10;;;6.95;;
10114;SDS011;5097;43.260;27.812;2023-06-26T12:29:13;3.90;;;3.42;;
10114;SDS011;5097;43.260;27.812;2023-06-26T12:31:59;14.27;;;5.18;;
10114;SDS011;5097;43.260;27.812;2023-06-26T12:34:46;14.18;;;5.90;;
10114;SDS011;5097;43.260;27.812;2023-06-26T12:37:36;7.18;;;3.75;;
10114;SDS011;5097;43.260;27.812;2023-06-26T12:40:22;6.57;;;3.63;;
10114;SDS011;5097;43.260;27.812;2023-06-26T12:43:10;3.10;;;2.90;;
10114;SDS011;5097;43.260;27.812;2023-06-26T12:45:56;5.20;;;3.83;;
10114;SDS011;5097;43.260;27.812;2023-06-26T12:48:40;7.63;;;4.00;;
10114;SDS011;5097;43.260;27.812;2023-06-26T12:51:28;11.98;;;4.90;;
10114;SDS011;5097;43.260;27.812;2023-06-26T12:54:12;4.22;;;3.83;;
10114;SDS011;5097;43.260;27.812;2023-06-26T12:56:56;3.92;;;3.55;;
10114;SDS011;5097;43.260;27.812;2023-06-26T12:59:40;4.07;;;3.67;;
10114;SDS011;5097;43.260;27.812;2023-06-26T13:02:26;3.85;;;3.55;;
10114;SDS011;5097;43.260;27.812;2023-06-26T13:05:10;3.50;;;3.17;;
10114;SDS011;5097;43.260;27.812;2023-06-26T13:07:54;3.10;;;2.90;;
10114;SDS011;5097;43.260;27.812;2023-06-26T13:10:38;6.93;;;3.83;;
10114;SDS011;5097;43.260;27.812;2023-06-26T13:13:22;4.10;;;3.50;;
10114;SDS011;5097;43.260;27.812;2023-06-26T13:16:06;3.97;;;3.67;;
10114;SDS011;5097;43.260;27.812;2023-06-26T13:18:52;6.20;;;3.80;;
10114;SDS011;5097;43.260;27.812;2023-06-26T13:21:35;6.00;;;4.00;;
10114;SDS011;5097;43.260;27.812;2023-06-26T13:24:20;4.03;;;3.70;;
10114;SDS011;5097;43.260;27.812;2023-06-26T13:27:04;5.10;;;4.03;;
10114;SDS011;5097;43.260;27.812;2023-06-26T13:29:48;4.00;;;3.70;;
10114;SDS011;5097;43.260;27.812;2023-06-26T13:32:32;4.10;;;3.78;;
10114;SDS011;5097;43.260;27.812;2023-06-26T13:35:17;5.50;;;3.88;;
10114;SDS011;5097;43.260;27.812;2023-06-26T13:38:01;4.78;;;4.25;;
10114;SDS011;5097;43.260;27.812;2023-06-26T13:40:45;3.92;;;3.60;;
10114;SDS011;5097;43.260;27.812;2023-06-26T13:43:29;4.90;;;3.90;;
10114;SDS011;5097;43.260;27.812;2023-06-26T13:46:15;6.05;;;4.80;;
10114;SDS011;5097;43.260;27.812;2023-06-26T13:48:59;4.85;;;3.60;;
10114;SDS011;5097;43.260;27.812;2023-06-26T13:51:45;5.80;;;4.80;;
10114;SDS011;5097;43.260;27.812;2023-06-26T13:54:30;8.48;;;5.00;;
10114;SDS011;5097;43.260;27.812;2023-06-26T13:57:14;8.93;;;6.13;;
10114;SDS011;5097;43.260;27.812;2023-06-26T13:59:58;7.45;;;6.00;;
10114;SDS011;5097;43.260;27.812;2023-06-26T14:02:43;4.88;;;4.43;;
10114;SDS011;5097;43.260;27.812;2023-06-26T14:05:27;4.38;;;3.97;;
10114;SDS011;5097;43.260;27.812;2023-06-26T14:08:17;5.00;;;4.18;;
10114;SDS011;5097;43.260;27.812;2023-06-26T14:11:01;8.55;;;4.68;;
10114;SDS011;5097;43.260;27.812;2023-06-26T14:13:45;6.03;;;3.83;;
10114;SDS011;5097;43.260;27.812;2023-06-26T14:16:29;6.03;;;3.92;;
10114;SDS011;5097;43.260;27.812;2023-06-26T14:19:14;7.15;;;4.05;;
10114;SDS011;5097;43.260;27.812;2023-06-26T14:21:59;5.95;;;3.90;;
10114;SDS011;5097;43.260;27.812;2023-06-26T14:24:45;4.18;;;3.75;;
10114;SDS011;5097;43.260;27.812;2023-06-26T14:27:29;4.60;;;4.20;;
10114;SDS011;5097;43.260;27.812;2023-06-26T14:30:13;9.80;;;5.30;;
10114;SDS011;5097;43.260;27.812;2023-06-26T14:32:57;6.00;;;5.40;;
10114;SDS011;5097;43.260;27.812;2023-06-26T14:35:41;6.80;;;6.10;;
10114;SDS011;5097;43.260;27.812;2023-06-26T14:38:25;6.78;;;6.18;;
10114;SDS011;5097;43.260;27.812;2023-06-26T14:41:10;8.38;;;6.50;;
10114;SDS011;5097;43.260;27.812;2023-06-26T14:43:55;7.57;;;6.40;;
10114;SDS011;5097;43.260;27.812;2023-06-26T14:46:40;6.80;;;5.47;;
10114;SDS011;5097;43.260;27.812;2023-06-26T14:49:24;7.18;;;5.82;;
10114;SDS011;5097;43.260;27.812;2023-06-26T14:52:08;7.80;;;6.70;;
10114;SDS011;5097;43.260;27.812;2023-06-26T14:54:52;10.00;;;7.22;;
10114;SDS011;5097;43.260;27.812;2023-06-26T14:57:37;7.18;;;6.00;;
10114;SDS011;5097;43.260;27.812;2023-06-26T15:00:21;8.23;;;6.43;;
10114;SDS011;5097;43.260;27.812;2023-06-26T15:03:06;9.05;;;7.18;;
10114;SDS011;5097;43.260;27.812;2023-06-26T15:05:50;7.25;;;6.50;;
10114;SDS011;5097;43.260;27.812;2023-06-26T15:08:34;7.55;;;6.80;;
10114;SDS011;5097;43.260;27.812;2023-06-26T15:11:18;7.43;;;6.43;;
10114;SDS011;5097;43.260;27.812;2023-06-26T15:14:03;7.00;;;6.38;;
10114;SDS011;5097;43.260;27.812;2023-06-26T15:16:47;8.38;;;7.40;;
10114;SDS011;5097;43.260;27.812;2023-06-26T15:19:33;8.60;;;6.63;;
10114;SDS011;5097;43.260;27.812;2023-06-26T15:22:17;10.98;;;6.65;;
10114;SDS011;5097;43.260;27.812;2023-06-26T15:25:01;9.15;;;6.25;;
10114;SDS011;5097;43.260;27.812;2023-06-26T15:27:45;8.32;;;6.55;;
10114;SDS011;5097;43.260;27.812;2023-06-26T15:30:31;8.18;;;5.80;;
10114;SDS011;5097;43.260;27.812;2023-06-26T15:33:15;6.80;;;5.60;;
10114;SDS011;5097;43.260;27.812;2023-06-26T15:35:59;8.82;;;5.72;;
10114;SDS011;5097;43.260;27.812;2023-06-26T15:38:45;6.43;;;5.82;;
10114;SDS011;5097;43.260;27.812;2023-06-26T15:41:29;9.95;;;6.22;;
10114;SDS011;5097;43.260;27.812;2023-06-26T15:44:13;4.13;;;3.80;;
10114;SDS011;5097;43.260;27.812;2023-06-26T15:46:59;4.75;;;4.35;;
10114;SDS011;5097;43.260;27.812;2023-06-26T15:49:43;5.78;;;3.60;;
10114;SDS011;5097;43.260;27.812;2023-06-26T15:52:27;5.38;;;4.07;;
10114;SDS011;5097;43.260;27.812;2023-06-26T15:55:11;3.97;;;3.67;;
10114;SDS011;5097;43.260;27.812;2023-06-26T15:57:55;6.22;;;4.13;;
10114;SDS011;5097;43.260;27.812;2023-06-26T16:00:39;6.40;;;4.90;;
10114;SDS011;5097;43.260;27.812;2023-06-26T16:03:24;3.63;;;3.33;;
10114;SDS011;5097;43.260;27.812;2023-06-26T16:06:09;5.57;;;3.60;;
10114;SDS011;5097;43.260;27.812;2023-06-26T16:08:53;6.15;;;3.90;;
10114;SDS011;5097;43.260;27.812;2023-06-26T16:11:37;5.25;;;4.15;;
10114;SDS011;5097;43.260;27.812;2023-06-26T16:14:21;4.32;;;3.97;;
10114;SDS011;5097;43.260;27.812;2023-06-26T16:17:05;4.22;;;3.42;;
10114;SDS011;5097;43.260;27.812;2023-06-26T16:19:51;4.47;;;3.55;;
10114;SDS011;5097;43.260;27.812;2023-06-26T16:22:35;4.07;;;3.70;;
10114;SDS011;5097;43.260;27.812;2023-06-26T16:25:19;4.13;;;3.78;;
10114;SDS011;5097;43.260;27.812;2023-06-26T16:28:04;3.88;;;3.60;;
10114;SDS011;5097;43.260;27.812;2023-06-26T16:30:48;6.53;;;4.07;;